TimeCST,TemperatureF,Dew PointF,Humidity,Sea Level PressureIn,VisibilityMPH,Wind Direction,Wind SpeedMPH,Gust SpeedMPH,PrecipitationIn,Events,Conditions,WindDirDegrees,DateUTC
12:34 AM,66.2,64.4,94,29.90,4.0,Calm,Calm,-,N/A,,Overcast,0,2012-12-25 06:34:00
12:53 AM,66.0,64.0,93,29.91,1.0,Calm,Calm,-,N/A,,Overcast,0,2012-12-25 06:53:00
1:31 AM,66.2,64.4,94,29.90,0.5,South,3.5,-,N/A,Fog,Fog,170,2012-12-25 07:31:00
1:53 AM,66.0,64.0,93,29.91,0.8,Calm,Calm,-,N/A,,Overcast,0,2012-12-25 07:53:00
2:23 AM,66.2,64.4,94,29.89,1.2,Calm,Calm,-,N/A,,Overcast,0,2012-12-25 08:23:00
2:37 AM,66.2,64.4,94,29.89,0.5,Calm,Calm,-,N/A,Fog,Fog,0,2012-12-25 08:37:00
2:53 AM,64.9,64.0,97,29.90,0.2,Calm,Calm,-,N/A,Fog,Fog,0,2012-12-25 08:53:00
3:17 AM,64.4,64.4,100,29.88,0.2,Calm,Calm,-,N/A,Fog,Fog,0,2012-12-25 09:17:00
3:29 AM,64.4,64.4,100,29.87,0.2,Calm,Calm,-,N/A,Fog,Fog,0,2012-12-25 09:29:00
3:41 AM,64.4,64.4,100,29.88,0.5,Calm,Calm,-,N/A,Fog,Fog,0,2012-12-25 09:41:00
3:53 AM,64.0,63.0,96,29.88,0.5,ESE,3.5,-,N/A,Fog,Fog,110,2012-12-25 09:53:00
4:25 AM,64.4,62.6,94,29.87,0.2,East,4.6,-,N/A,Fog,Fog,100,2012-12-25 10:25:00
4:53 AM,64.0,63.0,96,29.87,0.2,East,4.6,-,N/A,Fog,Fog,90,2012-12-25 10:53:00
5:39 AM,64.4,64.4,100,29.86,0.2,ESE,5.8,-,N/A,Fog,Fog,110,2012-12-25 11:39:00
5:53 AM,64.9,63.0,93,29.87,0.2,ESE,5.8,-,N/A,Fog,Fog,110,2012-12-25 11:53:00
6:08 AM,64.4,62.6,94,29.86,0.5,ESE,6.9,-,N/A,Fog,Fog,110,2012-12-25 12:08:00
6:43 AM,64.4,62.6,94,29.84,0.2,ESE,9.2,-,N/A,Fog,Fog,120,2012-12-25 12:43:00
6:53 AM,64.0,63.0,96,29.85,0.5,ESE,12.7,-,N/A,Fog,Fog,120,2012-12-25 12:53:00
7:04 AM,64.4,62.6,94,29.85,0.5,ESE,11.5,-,N/A,Fog,Fog,120,2012-12-25 13:04:00
7:13 AM,64.4,62.6,94,29.84,0.2,ESE,12.7,-,N/A,Fog,Fog,120,2012-12-25 13:13:00
7:20 AM,64.4,62.6,94,29.84,0.2,ESE,12.7,-,N/A,Fog,Fog,120,2012-12-25 13:20:00
7:27 AM,64.4,62.6,94,29.84,0.2,SE,10.4,-,N/A,Fog,Fog,130,2012-12-25 13:27:00
7:34 AM,64.4,62.6,94,29.84,0.5,SE,11.5,-,N/A,Fog,Fog,130,2012-12-25 13:34:00
7:53 AM,64.0,63.0,96,29.85,1.5,SE,9.2,-,N/A,,Overcast,140,2012-12-25 13:53:00
7:57 AM,64.4,62.6,94,29.85,3.0,SSE,8.1,-,N/A,,Overcast,160,2012-12-25 13:57:00
8:16 AM,66.2,64.4,94,29.84,8.0,SSE,11.5,-,N/A,,Mostly Cloudy,160,2012-12-25 14:16:00
8:53 AM,68.0,66.0,93,29.86,10.0,South,13.8,-,N/A,,Clear,170,2012-12-25 14:53:00
9:53 AM,70.0,66.0,87,29.87,10.0,South,12.7,-,N/A,,Partly Cloudy,170,2012-12-25 15:53:00
10:53 AM,72.0,64.9,78,29.86,10.0,South,12.7,-,N/A,,Partly Cloudy,180,2012-12-25 16:53:00
11:53 AM,72.0,64.9,78,29.82,10.0,SSE,17.3,-,N/A,,Partly Cloudy,160,2012-12-25 17:53:00
12:53 PM,73.0,64.0,73,29.77,10.0,SSE,16.1,-,N/A,,Mostly Cloudy,150,2012-12-25 18:53:00
1:46 PM,71.6,64.4,78,29.75,10.0,SSE,15.0,-,N/A,,Overcast,150,2012-12-25 19:46:00
1:53 PM,71.6,64.4,78,29.75,10.0,SSE,12.7,-,N/A,,Overcast,150,2012-12-25 19:53:00
2:53 PM,71.1,66.0,84,29.74,10.0,SSE,15.0,-,N/A,,Mostly Cloudy,160,2012-12-25 20:53:00
3:05 PM,71.6,66.2,83,29.74,10.0,SSE,15.0,19.6,N/A,,Mostly Cloudy,160,2012-12-25 21:05:00
3:35 PM,71.6,66.2,83,29.73,10.0,SSE,13.8,-,N/A,,Overcast,160,2012-12-25 21:35:00
3:53 PM,71.1,66.0,84,29.73,10.0,SSE,12.7,-,N/A,,Mostly Cloudy,160,2012-12-25 21:53:00
4:53 PM,70.0,64.9,84,29.70,10.0,South,15.0,-,N/A,,Scattered Clouds,170,2012-12-25 22:53:00
5:53 PM,71.1,66.0,84,29.70,10.0,SSE,19.6,-,N/A,,Mostly Cloudy,160,2012-12-25 23:53:00
6:53 PM,71.1,64.9,81,29.65,10.0,South,21.9,32.2,N/A,,Partly Cloudy,170,2012-12-26 00:53:00
7:53 PM,71.1,64.9,81,29.62,10.0,South,24.2,32.2,N/A,,Overcast,170,2012-12-26 01:53:00
8:53 PM,71.1,64.9,81,29.63,10.0,South,25.3,35.7,0.00,Rain,Light Rain,180,2012-12-26 02:53:00
9:53 PM,70.0,66.0,87,29.60,7.0,South,26.5,35.7,0.06,Rain,Light Rain,180,2012-12-26 03:53:00
10:06 PM,64.4,60.8,88,29.66,2.5,West,26.5,38.0,0.03,Rain,Heavy Rain,260,2012-12-26 04:06:00
10:13 PM,62.6,59.0,88,29.67,3.0,WSW,19.6,33.4,0.15,Rain,Heavy Rain,250,2012-12-26 04:13:00
10:53 PM,57.9,52.0,81,29.67,10.0,West,12.7,20.7,0.20,,Overcast,260,2012-12-26 04:53:00
11:53 PM,57.9,52.0,81,29.68,10.0,West,11.5,-,N/A,,Overcast,260,2012-12-26 05:53:00